sensor_id;sensor_type;location;lat;lon;timestamp;P1;durP1;ratioP1;P2;durP2;ratioP2
63975;SDS011;50167;47.958;21.780;2022-09-30T00:00:15;30.37;;;11.10;;
63975;SDS011;50167;47.958;21.780;2022-09-30T00:02:41;15.40;;;10.23;;
63975;SDS011;50167;47.958;21.780;2022-09-30T00:05:09;15.93;;;9.47;;
63975;SDS011;50167;47.958;21.780;2022-09-30T00:07:35;21.30;;;10.27;;
63975;SDS011;50167;47.958;21.780;2022-09-30T00:10:01;26.90;;;11.70;;
63975;SDS011;50167;47.958;21.780;2022-09-30T00:12:27;39.17;;;12.67;;
63975;SDS011;50167;47.958;21.780;2022-09-30T00:14:53;26.27;;;10.80;;
63975;SDS011;50167;47.958;21.780;2022-09-30T00:17:19;25.73;;;10.57;;
63975;SDS011;50167;47.958;21.780;2022-09-30T00:19:45;16.97;;;9.40;;
63975;SDS011;50167;47.958;21.780;2022-09-30T00:22:12;18.33;;;9.63;;
63975;SDS011;50167;47.958;21.780;2022-09-30T00:24:38;15.83;;;9.83;;
63975;SDS011;50167;47.958;21.780;2022-09-30T00:27:04;16.10;;;9.80;;
63975;SDS011;50167;47.958;21.780;2022-09-30T00:29:30;21.07;;;9.27;;
63975;SDS011;50167;47.958;21.780;2022-09-30T00:31:56;24.00;;;9.17;;
63975;SDS011;50167;47.958;21.780;2022-09-30T00:34:22;30.03;;;9.40;;
63975;SDS011;50167;47.958;21.780;2022-09-30T00:36:53;12.23;;;9.40;;
63975;SDS011;50167;47.958;21.780;2022-09-30T00:41:51;23.70;;;9.53;;
63975;SDS011;50167;47.958;21.780;2022-09-30T00:47:32;29.53;;;10.63;;
63975;SDS011;50167;47.958;21.780;2022-09-30T00:50:22;35.07;;;10.63;;
63975;SDS011;50167;47.958;21.780;2022-09-30T00:53:11;15.50;;;9.60;;
63975;SDS011;50167;47.958;21.780;2022-09-30T00:55:56;28.43;;;9.20;;
63975;SDS011;50167;47.958;21.780;2022-09-30T00:58:47;13.40;;;8.60;;
63975;SDS011;50167;47.958;21.780;2022-09-30T01:01:20;24.07;;;8.53;;
63975;SDS011;50167;47.958;21.780;2022-09-30T01:06:41;22.63;;;8.40;;
63975;SDS011;50167;47.958;21.780;2022-09-30T01:09:08;12.77;;;8.30;;
63975;SDS011;50167;47.958;21.780;2022-09-30T01:11:36;14.67;;;8.33;;
63975;SDS011;50167;47.958;21.780;2022-09-30T01:14:09;35.43;;;8.53;;
63975;SDS011;50167;47.958;21.780;2022-09-30T01:31:52;15.03;;;8.87;;
63975;SDS011;50167;47.958;21.780;2022-09-30T01:34:49;12.97;;;8.23;;
63975;SDS011;50167;47.958;21.780;2022-09-30T01:37:48;24.80;;;9.00;;
63975;SDS011;50167;47.958;21.780;2022-09-30T01:43:36;11.17;;;8.17;;
63975;SDS011;50167;47.958;21.780;2022-09-30T01:48:48;23.63;;;8.13;;
63975;SDS011;50167;47.958;21.780;2022-09-30T01:54:12;30.73;;;8.83;;
63975;SDS011;50167;47.958;21.780;2022-09-30T01:56:50;36.97;;;8.77;;
63975;SDS011;50167;47.958;21.780;2022-09-30T02:00:17;17.67;;;8.83;;
63975;SDS011;50167;47.958;21.780;2022-09-30T02:02:12;14.70;;;8.10;;
63975;SDS011;50167;47.958;21.780;2022-09-30T02:04:54;17.90;;;8.03;;
63975;SDS011;50167;47.958;21.780;2022-09-30T02:07:26;10.40;;;7.40;;
63975;SDS011;50167;47.958;21.780;2022-09-30T02:10:01;11.13;;;6.83;;
63975;SDS011;50167;47.958;21.780;2022-09-30T02:12:36;16.93;;;7.83;;
63975;SDS011;50167;47.958;21.780;2022-09-30T02:17:38;8.00;;;6.47;;
63975;SDS011;50167;47.958;21.780;2022-09-30T02:20:19;8.63;;;6.50;;
63975;SDS011;50167;47.958;21.780;2022-09-30T02:22:49;8.77;;;6.77;;
63975;SDS011;50167;47.958;21.780;2022-09-30T02:25:44;8.70;;;6.10;;
63975;SDS011;50167;47.958;21.780;2022-09-30T02:28:19;13.27;;;6.60;;
63975;SDS011;50167;47.958;21.780;2022-09-30T02:30:52;13.43;;;6.40;;
63975;SDS011;50167;47.958;21.780;2022-09-30T02:33:26;12.73;;;5.90;;
63975;SDS011;50167;47.958;21.780;2022-09-30T02:39:00;14.27;;;7.97;;
63975;SDS011;50167;47.958;21.780;2022-09-30T02:41:34;21.20;;;7.87;;
63975;SDS011;50167;47.958;21.780;2022-09-30T02:44:03;19.57;;;7.23;;
63975;SDS011;50167;47.958;21.780;2022-09-30T02:46:33;9.70;;;6.50;;
63975;SDS011;50167;47.958;21.780;2022-09-30T02:49:21;7.43;;;6.47;;
63975;SDS011;50167;47.958;21.780;2022-09-30T03:00:41;10.43;;;6.53;;
63975;SDS011;50167;47.958;21.780;2022-09-30T03:03:10;12.87;;;6.27;;
63975;SDS011;50167;47.958;21.780;2022-09-30T03:05:39;10.87;;;5.67;;
63975;SDS011;50167;47.958;21.780;2022-09-30T03:08:05;15.87;;;5.87;;
63975;SDS011;50167;47.958;21.780;2022-09-30T03:10:31;11.83;;;5.33;;
63975;SDS011;50167;47.958;21.780;2022-09-30T03:15:45;5.73;;;5.23;;
63975;SDS011;50167;47.958;21.780;2022-09-30T03:32:57;11.80;;;6.33;;
63975;SDS011;50167;47.958;21.780;2022-09-30T03:38:59;8.77;;;6.10;;
63975;SDS011;50167;47.958;21.780;2022-09-30T03:46:34;6.33;;;5.20;;
63975;SDS011;50167;47.958;21.780;2022-09-30T03:49:10;8.53;;;6.33;;
63975;SDS011;50167;47.958;21.780;2022-09-30T03:51:44;9.73;;;5.67;;
63975;SDS011;50167;47.958;21.780;2022-09-30T03:54:11;10.73;;;5.77;;
63975;SDS011;50167;47.958;21.780;2022-09-30T03:56:39;7.33;;;6.63;;
63975;SDS011;50167;47.958;21.780;2022-09-30T03:59:29;11.77;;;5.87;;
63975;SDS011;50167;47.958;21.780;2022-09-30T04:01:39;7.70;;;6.80;;
63975;SDS011;50167;47.958;21.780;2022-09-30T04:04:05;9.37;;;6.67;;
63975;SDS011;50167;47.958;21.780;2022-09-30T04:06:31;8.20;;;6.00;;
63975;SDS011;50167;47.958;21.780;2022-09-30T04:08:57;7.50;;;6.07;;
63975;SDS011;50167;47.958;21.780;2022-09-30T04:11:23;6.23;;;5.73;;
63975;SDS011;50167;47.958;21.780;2022-09-30T04:13:50;7.07;;;6.37;;
63975;SDS011;50167;47.958;21.780;2022-09-30T04:16:16;7.80;;;6.07;;
63975;SDS011;50167;47.958;21.780;2022-09-30T04:18:43;7.03;;;5.77;;
63975;SDS011;50167;47.958;21.780;2022-09-30T04:21:10;7.13;;;6.27;;
63975;SDS011;50167;47.958;21.780;2022-09-30T04:23:40;9.77;;;6.07;;
63975;SDS011;50167;47.958;21.780;2022-09-30T04:26:09;14.57;;;5.50;;
63975;SDS011;50167;47.958;21.780;2022-09-30T04:28:40;6.50;;;5.80;;
63975;SDS011;50167;47.958;21.780;2022-09-30T04:31:08;6.80;;;6.17;;
63975;SDS011;50167;47.958;21.780;2022-09-30T04:33:37;8.27;;;7.33;;
63975;SDS011;50167;47.958;21.780;2022-09-30T04:36:04;12.87;;;7.20;;
63975;SDS011;50167;47.958;21.780;2022-09-30T04:38:31;8.27;;;7.00;;
63975;SDS011;50167;47.958;21.780;2022-09-30T04:41:01;9.77;;;7.50;;
63975;SDS011;50167;47.958;21.780;2022-09-30T04:43:30;10.37;;;6.97;;
63975;SDS011;50167;47.958;21.780;2022-09-30T04:45:57;8.47;;;7.40;;
63975;SDS011;50167;47.958;21.780;2022-09-30T04:48:23;7.93;;;7.13;;
63975;SDS011;50167;47.958;21.780;2022-09-30T04:50:49;11.10;;;6.80;;
63975;SDS011;50167;47.958;21.780;2022-09-30T04:53:16;8.47;;;6.93;;
63975;SDS011;50167;47.958;21.780;2022-09-30T04:55:43;9.63;;;7.70;;
63975;SDS011;50167;47.958;21.780;2022-09-30T04:58:10;8.60;;;7.70;;
63975;SDS011;50167;47.958;21.780;2022-09-30T05:00:37;11.30;;;7.23;;
63975;SDS011;50167;47.958;21.780;2022-09-30T05:03:03;11.30;;;7.57;;
63975;SDS011;50167;47.958;21.780;2022-09-30T05:05:30;8.60;;;7.00;;
63975;SDS011;50167;47.958;21.780;2022-09-30T05:07:59;9.40;;;7.87;;
63975;SDS011;50167;47.958;21.780;2022-09-30T05:10:27;8.33;;;7.40;;
63975;SDS011;50167;47.958;21.780;2022-09-30T05:12:54;11.23;;;7.63;;
63975;SDS011;50167;47.958;21.780;2022-09-30T05:15:22;8.80;;;7.17;;
63975;SDS011;50167;47.958;21.780;2022-09-30T05:17:49;9.27;;;6.93;;
63975;SDS011;50167;47.958;21.780;2022-09-30T05:20:15;8.20;;;6.93;;
63975;SDS011;50167;47.958;21.780;2022-09-30T05:22:41;10.43;;;6.97;;
63975;SDS011;50167;47.958;21.780;2022-09-30T05:25:07;8.93;;;7.80;;
63975;SDS011;50167;47.958;21.780;2022-09-30T05:27:34;7.50;;;6.77;;
63975;SDS011;50167;47.958;21.780;2022-09-30T05:30:00;8.30;;;7.00;;
63975;SDS011;50167;47.958;21.780;2022-09-30T05:32:27;14.30;;;8.87;;
63975;SDS011;50167;47.958;21.780;2022-09-30T05:34:53;15.90;;;9.20;;
63975;SDS011;50167;47.958;21.780;2022-09-30T05:37:20;9.33;;;7.80;;
63975;SDS011;50167;47.958;21.780;2022-09-30T05:39:46;11.70;;;7.77;;
63975;SDS011;50167;47.958;21.780;2022-09-30T05:42:13;8.57;;;7.03;;
63975;SDS011;50167;47.958;21.780;2022-09-30T05:44:39;7.70;;;6.27;;
63975;SDS011;50167;47.958;21.780;2022-09-30T05:47:05;8.27;;;7.47;;
63975;SDS011;50167;47.958;21.780;2022-09-30T05:49:32;8.03;;;7.23;;
63975;SDS011;50167;47.958;21.780;2022-09-30T05:51:59;10.70;;;6.90;;
63975;SDS011;50167;47.958;21.780;2022-09-30T05:54:25;6.53;;;5.90;;
63975;SDS011;50167;47.958;21.780;2022-09-30T05:56:52;7.53;;;6.40;;
63975;SDS011;50167;47.958;21.780;2022-09-30T05:59:19;9.33;;;6.70;;
63975;SDS011;50167;47.958;21.780;2022-09-30T06:01:45;7.20;;;5.77;;
63975;SDS011;50167;47.958;21.780;2022-09-30T06:04:11;6.77;;;6.17;;
63975;SDS011;50167;47.958;21.780;2022-09-30T06:06:37;8.10;;;6.13;;
63975;SDS011;50167;47.958;21.780;2022-09-30T06:09:03;8.37;;;5.87;;
63975;SDS011;50167;47.958;21.780;2022-09-30T06:11:29;7.27;;;5.80;;
63975;SDS011;50167;47.958;21.780;2022-09-30T06:13:56;6.60;;;5.93;;
63975;SDS011;50167;47.958;21.780;2022-09-30T06:16:22;6.00;;;5.40;;
63975;SDS011;50167;47.958;21.780;2022-09-30T06:18:49;5.80;;;5.30;;
63975;SDS011;50167;47.958;21.780;2022-09-30T06:21:15;8.27;;;5.53;;
63975;SDS011;50167;47.958;21.780;2022-09-30T06:23:42;11.47;;;5.17;;
63975;SDS011;50167;47.958;21.780;2022-09-30T06:26:09;9.40;;;7.53;;
63975;SDS011;50167;47.958;21.780;2022-09-30T06:28:37;10.00;;;7.83;;
63975;SDS011;50167;47.958;21.780;2022-09-30T06:31:04;10.20;;;8.30;;
63975;SDS011;50167;47.958;21.780;2022-09-30T06:33:32;16.40;;;9.13;;
63975;SDS011;50167;47.958;21.780;2022-09-30T06:35:59;11.30;;;9.03;;
63975;SDS011;50167;47.958;21.780;2022-09-30T06:38:27;7.73;;;6.73;;
63975;SDS011;50167;47.958;21.780;2022-09-30T06:40:53;8.73;;;5.07;;
63975;SDS011;50167;47.958;21.780;2022-09-30T06:43:20;5.77;;;4.93;;
63975;SDS011;50167;47.958;21.780;2022-09-30T06:45:47;8.00;;;4.87;;
63975;SDS011;50167;47.958;21.780;2022-09-30T06:48:16;4.53;;;4.12;;
63975;SDS011;50167;47.958;21.780;2022-09-30T06:50:43;8.20;;;5.10;;
63975;SDS011;50167;47.958;21.780;2022-09-30T06:53:11;6.33;;;4.37;;
63975;SDS011;50167;47.958;21.780;2022-09-30T06:55:38;8.23;;;4.37;;
63975;SDS011;50167;47.958;21.780;2022-09-30T06:58:05;7.07;;;4.67;;
63975;SDS011;50167;47.958;21.780;2022-09-30T07:00:34;6.37;;;5.67;;
63975;SDS011;50167;47.958;21.780;2022-09-30T07:03:01;7.73;;;5.50;;
63975;SDS011;50167;47.958;21.780;2022-09-30T07:05:27;5.90;;;5.30;;
63975;SDS011;50167;47.958;21.780;2022-09-30T07:07:53;5.80;;;5.17;;
63975;SDS011;50167;47.958;21.780;2022-09-30T07:10:20;6.77;;;5.27;;
63975;SDS011;50167;47.958;21.780;2022-09-30T07:12:50;11.50;;;6.03;;
63975;SDS011;50167;47.958;21.780;2022-09-30T07:15:17;7.87;;;5.53;;
63975;SDS011;50167;47.958;21.780;2022-09-30T07:17:51;6.95;;;5.28;;
63975;SDS011;50167;47.958;21.780;2022-09-30T07:20:19;17.33;;;5.63;;
63975;SDS011;50167;47.958;21.780;2022-09-30T07:22:45;7.37;;;5.53;;
63975;SDS011;50167;47.958;21.780;2022-09-30T07:25:12;9.87;;;4.80;;
63975;SDS011;50167;47.958;21.780;2022-09-30T07:27:39;8.40;;;5.20;;
63975;SDS011;50167;47.958;21.780;2022-09-30T07:30:06;6.50;;;5.43;;
63975;SDS011;50167;47.958;21.780;2022-09-30T07:32:33;5.27;;;4.77;;
63975;SDS011;50167;47.958;21.780;2022-09-30T07:35:00;7.23;;;5.23;;
63975;SDS011;50167;47.958;21.780;2022-09-30T07:37:26;8.00;;;4.40;;
63975;SDS011;50167;47.958;21.780;2022-09-30T07:39:52;4.80;;;4.20;;
63975;SDS011;50167;47.958;21.780;2022-09-30T07:42:18;11.37;;;4.70;;
63975;SDS011;50167;47.958;21.780;2022-09-30T07:44:47;11.40;;;5.60;;
63975;SDS011;50167;47.958;21.780;2022-09-30T07:47:16;13.50;;;6.47;;
63975;SDS011;50167;47.958;21.780;2022-09-30T07:49:43;11.47;;;6.23;;
63975;SDS011;50167;47.958;21.780;2022-09-30T07:52:10;7.73;;;5.13;;
63975;SDS011;50167;47.958;21.780;2022-09-30T07:54:38;7.97;;;4.53;;
63975;SDS011;50167;47.958;21.780;2022-09-30T07:57:10;7.17;;;4.47;;
63975;SDS011;50167;47.958;21.780;2022-09-30T07:59:37;7.17;;;3.83;;
63975;SDS011;50167;47.958;21.780;2022-09-30T08:02:05;6.40;;;4.47;;
63975;SDS011;50167;47.958;21.780;2022-09-30T08:04:34;10.07;;;5.53;;
63975;SDS011;50167;47.958;21.780;2022-09-30T08:07:00;7.90;;;4.60;;
63975;SDS011;50167;47.958;21.780;2022-09-30T08:09:28;8.27;;;4.77;;
63975;SDS011;50167;47.958;21.780;2022-09-30T08:11:55;7.63;;;4.13;;
63975;SDS011;50167;47.958;21.780;2022-09-30T08:14:22;8.67;;;4.27;;
63975;SDS011;50167;47.958;21.780;2022-09-30T08:16:52;4.83;;;4.00;;
63975;SDS011;50167;47.958;21.780;2022-09-30T08:19:23;4.37;;;3.60;;
63975;SDS011;50167;47.958;21.780;2022-09-30T08:21:50;5.05;;;3.20;;
63975;SDS011;50167;47.958;21.780;2022-09-30T08:24:27;5.80;;;3.10;;
63975;SDS011;50167;47.958;21.780;2022-09-30T08:26:53;8.90;;;3.97;;
63975;SDS011;50167;47.958;21.780;2022-09-30T08:29:20;6.33;;;3.57;;
63975;SDS011;50167;47.958;21.780;2022-09-30T08:31:46;9.37;;;3.50;;
63975;SDS011;50167;47.958;21.780;2022-09-30T08:34:12;12.57;;;3.03;;
63975;SDS011;50167;47.958;21.780;2022-09-30T08:36:39;7.20;;;4.00;;
63975;SDS011;50167;47.958;21.780;2022-09-30T08:39:05;4.12;;;3.15;;
63975;SDS011;50167;47.958;21.780;2022-09-30T08:44:43;10.58;;;2.70;;
63975;SDS011;50167;47.958;21.780;2022-09-30T08:47:13;5.20;;;2.67;;
63975;SDS011;50167;47.958;21.780;2022-09-30T08:53:08;4.20;;;2.73;;
63975;SDS011;50167;47.958;21.780;2022-09-30T08:55:42;4.17;;;2.60;;
63975;SDS011;50167;47.958;21.780;2022-09-30T08:58:19;7.73;;;3.43;;
63975;SDS011;50167;47.958;21.780;2022-09-30T09:00:49;9.80;;;2.70;;
63975;SDS011;50167;47.958;21.780;2022-09-30T09:03:25;4.72;;;2.65;;
63975;SDS011;50167;47.958;21.780;2022-09-30T09:09:04;5.90;;;2.83;;
63975;SDS011;50167;47.958;21.780;2022-09-30T09:11:56;13.57;;;3.33;;
63975;SDS011;50167;47.958;21.780;2022-09-30T09:14:55;8.33;;;3.77;;
63975;SDS011;50167;47.958;21.780;2022-09-30T09:23:48;5.30;;;3.65;;
63975;SDS011;50167;47.958;21.780;2022-09-30T09:26:17;4.60;;;2.10;;
63975;SDS011;50167;47.958;21.780;2022-09-30T09:29:31;4.93;;;2.17;;
63975;SDS011;50167;47.958;21.780;2022-09-30T09:31:49;4.43;;;2.33;;
63975;SDS011;50167;47.958;21.780;2022-09-30T09:34:15;6.50;;;2.60;;
63975;SDS011;50167;47.958;21.780;2022-09-30T09:36:45;6.60;;;2.60;;
63975;SDS011;50167;47.958;21.780;2022-09-30T09:44:50;6.60;;;3.33;;
63975;SDS011;50167;47.958;21.780;2022-09-30T09:47:22;4.23;;;2.03;;
63975;SDS011;50167;47.958;21.780;2022-09-30T09:49:58;5.83;;;3.10;;
63975;SDS011;50167;47.958;21.780;2022-09-30T09:52:28;5.58;;;2.33;;
63975;SDS011;50167;47.958;21.780;2022-09-30T09:55:04;4.55;;;2.50;;
63975;SDS011;50167;47.958;21.780;2022-09-30T09:57:33;3.27;;;2.10;;
63975;SDS011;50167;47.958;21.780;2022-09-30T10:00:04;2.77;;;1.85;;
63975;SDS011;50167;47.958;21.780;2022-09-30T10:02:58;7.97;;;1.87;;
63975;SDS011;50167;47.958;21.780;2022-09-30T10:05:39;3.60;;;1.70;;
63975;SDS011;50167;47.958;21.780;2022-09-30T10:08:22;6.12;;;1.70;;
63975;SDS011;50167;47.958;21.780;2022-09-30T10:10:58;3.10;;;1.80;;
63975;SDS011;50167;47.958;21.780;2022-09-30T10:13:24;12.53;;;2.72;;
63975;SDS011;50167;47.958;21.780;2022-09-30T10:15:54;4.40;;;1.92;;
63975;SDS011;50167;47.958;21.780;2022-09-30T10:18:27;2.25;;;1.65;;
63975;SDS011;50167;47.958;21.780;2022-09-30T10:21:03;2.20;;;1.70;;
63975;SDS011;50167;47.958;21.780;2022-09-30T10:23:34;6.17;;;2.20;;
63975;SDS011;50167;47.958;21.780;2022-09-30T10:31:27;5.33;;;1.50;;
63975;SDS011;50167;47.958;21.780;2022-09-30T10:36:50;2.37;;;1.20;;
63975;SDS011;50167;47.958;21.780;2022-09-30T10:42:01;3.75;;;2.08;;
63975;SDS011;50167;47.958;21.780;2022-09-30T10:44:47;5.45;;;1.70;;
63975;SDS011;50167;47.958;21.780;2022-09-30T10:47:25;2.02;;;1.52;;
63975;SDS011;50167;47.958;21.780;2022-09-30T10:52:32;4.78;;;1.82;;
63975;SDS011;50167;47.958;21.780;2022-09-30T10:57:53;6.05;;;1.82;;
63975;SDS011;50167;47.958;21.780;2022-09-30T11:00:22;2.65;;;1.72;;
63975;SDS011;50167;47.958;21.780;2022-09-30T11:02:59;3.37;;;1.60;;
63975;SDS011;50167;47.958;21.780;2022-09-30T11:05:37;3.62;;;1.70;;
63975;SDS011;50167;47.958;21.780;2022-09-30T11:08:27;2.58;;;1.95;;
63975;SDS011;50167;47.958;21.780;2022-09-30T11:11:12;5.05;;;1.60;;
63975;SDS011;50167;47.958;21.780;2022-09-30T11:13:49;3.45;;;2.00;;
63975;SDS011;50167;47.958;21.780;2022-09-30T11:22:08;2.42;;;1.70;;
63975;SDS011;50167;47.958;21.780;2022-09-30T11:24:43;6.12;;;1.32;;
63975;SDS011;50167;47.958;21.780;2022-09-30T11:33:05;8.15;;;1.75;;
63975;SDS011;50167;47.958;21.780;2022-09-30T11:35:54;2.33;;;1.60;;
63975;SDS011;50167;47.958;21.780;2022-09-30T11:41:44;1.50;;;1.40;;
63975;SDS011;50167;47.958;21.780;2022-09-30T11:44:24;2.50;;;1.42;;
63975;SDS011;50167;47.958;21.780;2022-09-30T11:49:44;3.27;;;1.45;;
63975;SDS011;50167;47.958;21.780;2022-09-30T11:55:09;3.08;;;1.80;;
63975;SDS011;50167;47.958;21.780;2022-09-30T11:57:51;5.55;;;1.60;;
63975;SDS011;50167;47.958;21.780;2022-09-30T12:00:34;2.05;;;1.60;;
63975;SDS011;50167;47.958;21.780;2022-09-30T12:03:07;3.95;;;1.77;;
63975;SDS011;50167;47.958;21.780;2022-09-30T12:05:47;5.00;;;2.02;;
63975;SDS011;50167;47.958;21.780;2022-09-30T12:08:23;8.25;;;2.22;;
63975;SDS011;50167;47.958;21.780;2022-09-30T12:10:58;8.45;;;3.80;;
63975;SDS011;50167;47.958;21.780;2022-09-30T12:13:47;5.97;;;2.45;;
63975;SDS011;50167;47.958;21.780;2022-09-30T12:16:24;4.67;;;2.22;;
63975;SDS011;50167;47.958;21.780;2022-09-30T12:18:52;4.55;;;2.00;;
63975;SDS011;50167;47.958;21.780;2022-09-30T12:27:21;2.42;;;2.10;;
63975;SDS011;50167;47.958;21.780;2022-09-30T12:30:17;3.08;;;2.00;;
63975;SDS011;50167;47.958;21.780;2022-09-30T12:38:43;19.48;;;8.45;;
63975;SDS011;50167;47.958;21.780;2022-09-30T12:47:30;11.40;;;6.25;;
63975;SDS011;50167;47.958;21.780;2022-09-30T12:50:08;5.00;;;2.55;;
63975;SDS011;50167;47.958;21.780;2022-09-30T12:52:36;6.75;;;2.02;;
63975;SDS011;50167;47.958;21.780;2022-09-30T12:55:13;3.33;;;1.85;;
63975;SDS011;50167;47.958;21.780;2022-09-30T12:57:42;5.73;;;1.60;;
63975;SDS011;50167;47.958;21.780;2022-09-30T13:00:13;2.72;;;1.70;;
63975;SDS011;50167;47.958;21.780;2022-09-30T13:02:44;2.02;;;1.17;;
63975;SDS011;50167;47.958;21.780;2022-09-30T13:13:21;1.65;;;0.90;;
63975;SDS011;50167;47.958;21.780;2022-09-30T13:15:55;2.47;;;0.90;;
63975;SDS011;50167;47.958;21.780;2022-09-30T13:23:42;6.00;;;1.10;;
63975;SDS011;50167;47.958;21.780;2022-09-30T13:34:23;4.70;;;0.90;;
63975;SDS011;50167;47.958;21.780;2022-09-30T13:37:04;1.25;;;0.80;;
63975;SDS011;50167;47.958;21.780;2022-09-30T13:39:45;1.65;;;0.80;;
63975;SDS011;50167;47.958;21.780;2022-09-30T13:42:20;0.70;;;0.70;;
63975;SDS011;50167;47.958;21.780;2022-09-30T13:48:04;0.93;;;0.82;;
63975;SDS011;50167;47.958;21.780;2022-09-30T13:50:44;1.02;;;0.88;;
63975;SDS011;50167;47.958;21.780;2022-09-30T13:53:25;4.92;;;0.70;;
63975;SDS011;50167;47.958;21.780;2022-09-30T13:55:57;1.92;;;1.02;;
63975;SDS011;50167;47.958;21.780;2022-09-30T14:21:51;1.35;;;1.25;;
63975;SDS011;50167;47.958;21.780;2022-09-30T14:24:26;2.05;;;1.47;;
63975;SDS011;50167;47.958;21.780;2022-09-30T14:27:12;3.35;;;1.85;;
63975;SDS011;50167;47.958;21.780;2022-09-30T14:32:49;3.98;;;1.50;;
63975;SDS011;50167;47.958;21.780;2022-09-30T14:35:26;4.95;;;2.83;;
63975;SDS011;50167;47.958;21.780;2022-09-30T14:40:35;9.13;;;1.52;;
63975;SDS011;50167;47.958;21.780;2022-09-30T14:43:06;2.85;;;1.17;;
63975;SDS011;50167;47.958;21.780;2022-09-30T14:48:20;4.42;;;1.45;;
63975;SDS011;50167;47.958;21.780;2022-09-30T14:50:50;20.45;;;9.18;;
63975;SDS011;50167;47.958;21.780;2022-09-30T14:53:28;5.87;;;3.15;;
63975;SDS011;50167;47.958;21.780;2022-09-30T14:56:00;2.17;;;1.42;;
63975;SDS011;50167;47.958;21.780;2022-09-30T14:58:30;2.73;;;1.63;;
63975;SDS011;50167;47.958;21.780;2022-09-30T15:03:43;2.85;;;1.00;;
63975;SDS011;50167;47.958;21.780;2022-09-30T15:06:21;6.80;;;1.25;;
63975;SDS011;50167;47.958;21.780;2022-09-30T15:08:51;2.02;;;1.02;;
63975;SDS011;50167;47.958;21.780;2022-09-30T15:11:32;6.83;;;2.05;;
63975;SDS011;50167;47.958;21.780;2022-09-30T15:14:06;2.77;;;1.25;;
63975;SDS011;50167;47.958;21.780;2022-09-30T15:16:52;2.50;;;1.17;;
63975;SDS011;50167;47.958;21.780;2022-09-30T15:19:28;4.58;;;2.12;;
63975;SDS011;50167;47.958;21.780;2022-09-30T15:22:02;5.70;;;1.92;;
63975;SDS011;50167;47.958;21.780;2022-09-30T15:24:31;2.27;;;1.27;;
63975;SDS011;50167;47.958;21.780;2022-09-30T15:27:00;2.72;;;2.05;;
63975;SDS011;50167;47.958;21.780;2022-09-30T15:29:28;8.08;;;5.40;;
63975;SDS011;50167;47.958;21.780;2022-09-30T15:34:29;13.90;;;3.20;;
63975;SDS011;50167;47.958;21.780;2022-09-30T15:36:59;7.00;;;4.33;;
63975;SDS011;50167;47.958;21.780;2022-09-30T15:40:11;3.22;;;1.98;;
63975;SDS011;50167;47.958;21.780;2022-09-30T15:43:07;5.20;;;2.98;;
63975;SDS011;50167;47.958;21.780;2022-09-30T15:45:39;4.20;;;2.50;;
63975;SDS011;50167;47.958;21.780;2022-09-30T15:50:59;3.62;;;2.55;;
63975;SDS011;50167;47.958;21.780;2022-09-30T15:56:15;5.60;;;1.87;;
63975;SDS011;50167;47.958;21.780;2022-09-30T15:58:55;2.27;;;1.67;;
63975;SDS011;50167;47.958;21.780;2022-09-30T16:01:38;1.98;;;1.72;;
63975;SDS011;50167;47.958;21.780;2022-09-30T16:04:09;4.62;;;2.70;;
63975;SDS011;50167;47.958;21.780;2022-09-30T16:12:00;9.95;;;5.62;;
63975;SDS011;50167;47.958;21.780;2022-09-30T16:17:16;7.17;;;5.67;;
63975;SDS011;50167;47.958;21.780;2022-09-30T16:19:59;9.48;;;4.90;;
63975;SDS011;50167;47.958;21.780;2022-09-30T16:25:15;9.77;;;6.37;;
63975;SDS011;50167;47.958;21.780;2022-09-30T16:27:57;23.57;;;13.00;;
63975;SDS011;50167;47.958;21.780;2022-09-30T16:30:42;17.30;;;8.57;;
63975;SDS011;50167;47.958;21.780;2022-09-30T16:33:12;6.13;;;3.50;;
63975;SDS011;50167;47.958;21.780;2022-09-30T16:35:40;12.87;;;6.63;;
63975;SDS011;50167;47.958;21.780;2022-09-30T16:38:08;12.77;;;6.30;;
63975;SDS011;50167;47.958;21.780;2022-09-30T16:40:37;9.55;;;4.87;;
63975;SDS011;50167;47.958;21.780;2022-09-30T16:43:04;34.37;;;22.80;;
63975;SDS011;50167;47.958;21.780;2022-09-30T16:45:32;30.33;;;21.80;;
63975;SDS011;50167;47.958;21.780;2022-09-30T16:48:01;36.23;;;24.23;;
63975;SDS011;50167;47.958;21.780;2022-09-30T16:50:40;38.43;;;27.07;;
63975;SDS011;50167;47.958;21.780;2022-09-30T16:53:41;33.77;;;22.07;;
63975;SDS011;50167;47.958;21.780;2022-09-30T16:56:14;26.17;;;16.33;;
63975;SDS011;50167;47.958;21.780;2022-09-30T16:58:43;22.73;;;14.50;;
63975;SDS011;50167;47.958;21.780;2022-09-30T17:01:18;22.23;;;14.03;;
63975;SDS011;50167;47.958;21.780;2022-09-30T17:03:51;17.07;;;13.03;;
63975;SDS011;50167;47.958;21.780;2022-09-30T17:06:23;14.28;;;8.00;;
63975;SDS011;50167;47.958;21.780;2022-09-30T17:08:56;8.50;;;4.20;;
63975;SDS011;50167;47.958;21.780;2022-09-30T17:11:23;6.83;;;3.77;;
63975;SDS011;50167;47.958;21.780;2022-09-30T17:13:53;3.37;;;3.08;;
63975;SDS011;50167;47.958;21.780;2022-09-30T17:16:19;8.67;;;4.20;;
63975;SDS011;50167;47.958;21.780;2022-09-30T17:18:47;7.90;;;4.03;;
63975;SDS011;50167;47.958;21.780;2022-09-30T17:21:21;8.67;;;5.10;;
63975;SDS011;50167;47.958;21.780;2022-09-30T17:23:49;9.57;;;6.17;;
63975;SDS011;50167;47.958;21.780;2022-09-30T17:26:17;11.07;;;5.93;;
63975;SDS011;50167;47.958;21.780;2022-09-30T17:28:43;7.97;;;5.40;;
63975;SDS011;50167;47.958;21.780;2022-09-30T17:31:12;9.63;;;5.83;;
63975;SDS011;50167;47.958;21.780;2022-09-30T17:33:39;12.90;;;7.20;;
63975;SDS011;50167;47.958;21.780;2022-09-30T17:36:06;16.57;;;9.50;;
63975;SDS011;50167;47.958;21.780;2022-09-30T17:38:37;9.37;;;6.90;;
63975;SDS011;50167;47.958;21.780;2022-09-30T17:41:04;30.37;;;18.13;;
63975;SDS011;50167;47.958;21.780;2022-09-30T17:43:49;24.67;;;16.63;;
63975;SDS011;50167;47.958;21.780;2022-09-30T17:46:16;24.80;;;16.03;;
63975;SDS011;50167;47.958;21.780;2022-09-30T17:48:46;20.55;;;13.60;;
63975;SDS011;50167;47.958;21.780;2022-09-30T17:51:14;20.50;;;12.13;;
63975;SDS011;50167;47.958;21.780;2022-09-30T17:53:41;13.37;;;10.03;;
63975;SDS011;50167;47.958;21.780;2022-09-30T17:56:15;16.20;;;11.23;;
63975;SDS011;50167;47.958;21.780;2022-09-30T18:06:08;27.50;;;17.60;;
63975;SDS011;50167;47.958;21.780;2022-09-30T18:08:34;57.57;;;35.50;;
63975;SDS011;50167;47.958;21.780;2022-09-30T18:11:00;38.53;;;26.43;;
63975;SDS011;50167;47.958;21.780;2022-09-30T18:13:27;39.33;;;27.90;;
63975;SDS011;50167;47.958;21.780;2022-09-30T18:15:54;35.40;;;23.53;;
63975;SDS011;50167;47.958;21.780;2022-09-30T18:18:22;50.07;;;30.50;;
63975;SDS011;50167;47.958;21.780;2022-09-30T18:20:49;50.33;;;32.07;;
63975;SDS011;50167;47.958;21.780;2022-09-30T18:23:15;53.23;;;31.97;;
63975;SDS011;50167;47.958;21.780;2022-09-30T18:28:13;48.67;;;30.27;;
63975;SDS011;50167;47.958;21.780;2022-09-30T18:30:40;47.43;;;29.73;;
63975;SDS011;50167;47.958;21.780;2022-09-30T18:33:08;46.50;;;30.17;;
63975;SDS011;50167;47.958;21.780;2022-09-30T18:35:36;46.40;;;27.93;;
63975;SDS011;50167;47.958;21.780;2022-09-30T18:38:04;35.33;;;22.70;;
63975;SDS011;50167;47.958;21.780;2022-09-30T18:40:31;37.83;;;24.00;;
63975;SDS011;50167;47.958;21.780;2022-09-30T18:43:02;38.03;;;25.73;;
63975;SDS011;50167;47.958;21.780;2022-09-30T18:45:30;39.70;;;26.90;;
63975;SDS011;50167;47.958;21.780;2022-09-30T18:48:01;45.47;;;30.83;;
63975;SDS011;50167;47.958;21.780;2022-09-30T18:50:27;73.10;;;48.23;;